Costa Mediterranea — IBCF — position and weather

sailwx.info

Track history (hours):
 
Tides and Currents Weather Stations Pressure Air Temp Water Temp Dewpoint Dewpoint Depression Visibility Wind Speed Wind Dir Waves Ship Positions

Costa Mediterranea

Last reported at 2017-Jun-23 16:59 UTC. Time now 2017-Jun-23 17:23 UTC.
Position N 59°21' E 018°08'.

Length 293 m; draft 8 m.

Type: Passenger vessel. MMSI: 247088200.

Date/timePositionNaut miles runAvg speedWind from/ knotsBaromVisibWave heightAir tempDewpointWater temp
2017-Jun-23 16:59N 59°21' E 018°08'0 0.0
2017-Jun-23 16:25N 59°21' E 018°08'0 0.0
2017-Jun-23 15:55N 59°21' E 018°08'0 0.0
2017-Jun-23 15:25N 59°21' E 018°08'1 1.3
2017-Jun-23 15:00N 59°21' E 018°07'0 0.3
2017-Jun-23 14:00N 59°21' E 018°07'0 0.0
2017-Jun-23 13:30N 59°21' E 018°07'0 0.0
2017-Jun-23 12:56N 59°21' E 018°07'0 0.0
2017-Jun-23 12:26N 59°21' E 018°07'0 0.0
2017-Jun-23 11:59N 59°21' E 018°07'0 0.0
2017-Jun-23 11:29N 59°21' E 018°07'0 0.0
2017-Jun-23 10:59N 59°21' E 018°07'0 0.0
2017-Jun-23 10:19N 59°21' E 018°07'0 0.0
2017-Jun-23 10:00N 59°21' E 018°07'0 0.0
2017-Jun-23 09:30N 59°21' E 018°07'0 0.0
2017-Jun-23 08:59N 59°21' E 018°07'0 0.0
2017-Jun-23 08:31N 59°21' E 018°07'0 0.0
2017-Jun-23 07:59N 59°21' E 018°07'0 0.0
2017-Jun-23 07:25N 59°21' E 018°07'0 0.0
2017-Jun-23 06:57N 59°21' E 018°07'1 1.4
2017-Jun-23 06:30N 59°21' E 018°08'4 8.4
2017-Jun-23 06:00N 59°22' E 018°16'5 9.1
2017-Jun-23 05:30N 59°22' E 018°25'3 6.8
2017-Jun-23 05:00N 59°25' E 018°24'510.4
2017-Jun-23 04:30N 59°30' E 018°28'5 9.7
2017-Jun-23 04:00N 59°33' E 018°36'611.2
2017-Jun-23 03:30N 59°36' E 018°45'611.7
2017-Jun-23 03:00N 59°39' E 018°55'612.7
2017-Jun-23 02:30N 59°43' E 019°05'917.8
2017-Jun-23 02:01N 59°46' E 019°21'714.6
2017-Jun-23 01:31N 59°48' E 019°35'713.2
2017-Jun-23 01:00N 59°47' E 019°48'714.3
2017-Jun-23 00:30N 59°41' E 019°58'713.6
2017-Jun-23 00:01N 59°37' E 020°08'714.1
2017-Jun-22 23:30N 59°37' E 020°22'714.0
2017-Jun-22 23:01N 59°36' E 020°36'714.1
2017-Jun-22 22:30N 59°33' E 020°49'714.0
2017-Jun-22 22:00N 59°31' E 021°02'714.2
2017-Jun-22 21:30N 59°28' E 021°15'714.3
2017-Jun-22 21:00N 59°26' E 021°29'714.6
2017-Jun-22 20:30N 59°26' E 021°43'714.4
2017-Jun-22 20:01N 59°26' E 021°57'714.1
2017-Jun-22 19:30N 59°26' E 022°11'917.2
2017-Jun-22 19:00N 59°29' E 022°27'917.1
2017-Jun-22 18:31N 59°31' E 022°43'816.9
2017-Jun-22 18:01N 59°33' E 022°60'816.9
2017-Jun-22 17:31N 59°34' E 023°16'817.0
2017-Jun-22 17:01N 59°32' E 023°33'816.7
2017-Jun-22 16:30N 59°31' E 023°49'816.4
2017-Jun-22 16:01N 59°31' E 024°05'816.2
2017-Jun-22 15:31N 59°30' E 024°21'815.3
2017-Jun-22 15:01N 59°31' E 024°36'5 9.4
2017-Jun-22 14:31N 59°30' E 024°45'4 3.4
2017-Jun-22 13:28N 59°27' E 024°46'0 0.0
2017-Jun-22 12:58N 59°27' E 024°46'0 0.0
2017-Jun-22 12:28N 59°27' E 024°46'0 0.0
2017-Jun-22 12:00N 59°27' E 024°46'0 0.0
2017-Jun-22 11:29N 59°27' E 024°46'0 0.0
2017-Jun-22 10:59N 59°27' E 024°46'0 0.0
2017-Jun-22 10:29N 59°27' E 024°46'0 0.0
2017-Jun-22 09:59N 59°27' E 024°46'0 0.0
2017-Jun-22 09:26N 59°27' E 024°46'0 0.0
2017-Jun-22 08:59N 59°27' E 024°46'0 0.0
2017-Jun-22 08:28N 59°27' E 024°46'0 0.0
2017-Jun-22 08:01N 59°27' E 024°46'0 0.0
2017-Jun-22 07:30N 59°27' E 024°46'0 0.0
2017-Jun-22 07:00N 59°27' E 024°46'0 0.0
2017-Jun-22 06:29N 59°27' E 024°46'0 0.0
2017-Jun-22 05:58N 59°27' E 024°46'0 0.0
2017-Jun-22 05:30N 59°27' E 024°46'0 0.4
2017-Jun-22 05:00N 59°27' E 024°46'713.2
2017-Jun-22 04:31N 59°33' E 024°42'713.0
2017-Jun-22 04:00N 59°40' E 024°43'714.1
2017-Jun-22 03:30N 59°44' E 024°54'714.1
2017-Jun-22 03:01N 59°50' E 025°01'713.6
2017-Jun-22 02:31N 59°52' E 025°14'714.2
2017-Jun-22 02:01N 59°53' E 025°28'714.3
2017-Jun-22 01:30N 59°54' E 025°42'714.5
2017-Jun-22 01:00N 59°56' E 025°56'714.5
2017-Jun-22 00:31N 59°58' E 026°10'714.8
2017-Jun-22 00:00N 59°60' E 026°25'714.4
2017-Jun-21 23:30N 60°01' E 026°39'714.6
2017-Jun-21 23:01N 60°00' E 026°53'816.7
2017-Jun-21 22:30N 60°02' E 027°10'917.8
2017-Jun-21 22:01N 60°06' E 027°25'917.8
2017-Jun-21 21:31N 60°11' E 027°41'816.4
2017-Jun-21 21:00N 60°11' E 027°57'917.4
2017-Jun-21 20:31N 60°09' E 028°14'917.1
2017-Jun-21 20:01N 60°04' E 028°28'917.1
2017-Jun-21 19:31N 60°03' E 028°45'917.4
2017-Jun-21 19:00N 60°02' E 029°03'816.4
2017-Jun-21 18:30N 60°02' E 029°19'1310.4
2017-Jun-21 17:14N 59°59' E 029°45'210.5
2017-Jun-21 17:00N 59°57' E 029°49'611.3
2017-Jun-21 16:30N 59°55' E 029°60'510.0
2017-Jun-21 16:00N 59°57' E 030°09'1 2.3
2017-Jun-21 15:30N 59°57' E 030°11'0 0.0
2017-Jun-21 14:59N 59°57' E 030°11'0 0.0
2017-Jun-21 14:29N 59°57' E 030°11'0 0.0
2017-Jun-21 13:28N 59°57' E 030°11'0 0.0
2017-Jun-21 12:57N 59°57' E 030°11'0 0.0
2017-Jun-21 12:29N 59°57' E 030°11'0 0.0
2017-Jun-21 11:57N 59°57' E 030°11'0 0.0
2017-Jun-21 11:29N 59°57' E 030°11'0 0.0
2017-Jun-21 10:58N 59°57' E 030°11'0 0.0
2017-Jun-21 10:30N 59°57' E 030°11'0 0.0
2017-Jun-21 09:58N 59°57' E 030°11'0 0.0
2017-Jun-21 09:30N 59°57' E 030°11'0 0.0
2017-Jun-21 08:59N 59°57' E 030°11'0 0.0
2017-Jun-21 08:28N 59°57' E 030°11'0 0.0
2017-Jun-21 07:58N 59°57' E 030°11'0 0.0
2017-Jun-21 07:30N 59°57' E 030°11'0 0.0
2017-Jun-21 07:00N 59°57' E 030°11'0 0.0
2017-Jun-21 06:29N 59°57' E 030°11'0 0.0
2017-Jun-21 05:57N 59°57' E 030°11'0 0.0
2017-Jun-21 05:30N 59°57' E 030°11'0 0.0
2017-Jun-21 04:59N 59°57' E 030°11'0 0.0
2017-Jun-21 04:28N 59°57' E 030°11'0 0.0
2017-Jun-21 03:59N 59°57' E 030°11'0 0.0
2017-Jun-21 03:31N 59°57' E 030°11'0 0.0
2017-Jun-21 02:56N 59°57' E 030°11'0 0.0
2017-Jun-21 02:24N 59°57' E 030°11'0 0.0
2017-Jun-21 01:59N 59°57' E 030°11'0 0.0
2017-Jun-21 01:28N 59°57' E 030°11'0 0.0
2017-Jun-21 00:58N 59°57' E 030°11'0 0.0
2017-Jun-21 00:31N 59°57' E 030°11'0 0.0
2017-Jun-20 23:58N 59°57' E 030°11'0 0.0
2017-Jun-20 23:30N 59°57' E 030°11'0 0.0
2017-Jun-20 23:00N 59°57' E 030°11'0 0.0
2017-Jun-20 22:30N 59°57' E 030°11'0 0.0
2017-Jun-20 22:00N 59°57' E 030°11'0 0.0
2017-Jun-20 21:30N 59°57' E 030°11'0 0.0
2017-Jun-20 21:00N 59°57' E 030°11'0 0.0
2017-Jun-20 20:30N 59°57' E 030°11'0 0.0
2017-Jun-20 19:59N 59°57' E 030°11'0 0.0
2017-Jun-20 19:28N 59°57' E 030°11'0 0.0
2017-Jun-20 18:58N 59°57' E 030°11'0 0.0
2017-Jun-20 18:31N 59°57' E 030°11'0 0.0
2017-Jun-20 17:58N 59°57' E 030°11'0 0.0
2017-Jun-20 17:29N 59°57' E 030°11'0 0.0
2017-Jun-20 16:59N 59°57' E 030°11'0 0.0
2017-Jun-20 16:30N 59°57' E 030°11'0 0.0
2017-Jun-20 15:58N 59°57' E 030°11'0 0.0
2017-Jun-20 15:30N 59°57' E 030°11'0 0.0
2017-Jun-20 14:59N 59°57' E 030°11'0 0.0
2017-Jun-20 14:24N 59°57' E 030°11'0 0.0
2017-Jun-20 13:28N 59°57' E 030°11'0 0.0
2017-Jun-20 13:00N 59°57' E 030°11'0 0.0
2017-Jun-20 12:30N 59°57' E 030°11'0 0.0
2017-Jun-20 12:00N 59°57' E 030°11'0 0.0
2017-Jun-20 11:28N 59°57' E 030°11'0 0.0
2017-Jun-20 11:00N 59°57' E 030°11'0 0.0
2017-Jun-20 10:29N 59°57' E 030°11'0 0.0
2017-Jun-20 09:58N 59°57' E 030°11'0 0.0
2017-Jun-20 09:30N 59°57' E 030°11'0 0.0
2017-Jun-20 09:00N 59°57' E 030°11'0 0.0
2017-Jun-20 08:30N 59°57' E 030°11'0 0.0
2017-Jun-20 08:00N 59°57' E 030°11'0 0.0
2017-Jun-20 03:12N 59°57' E 030°11'0 0.6
2017-Jun-20 03:00N 59°57' E 030°11'4 8.4
2017-Jun-20 02:30N 59°56' E 030°03'510.0
2017-Jun-20 01:58N 59°57' E 029°52'4 9.7
2017-Jun-20 01:31N 59°59' E 029°44'611.6
2017-Jun-20 01:01N 60°01' E 029°33'611.1
2017-Jun-20 00:31N 60°02' E 029°22'815.8
2017-Jun-20 00:00N 60°02' E 029°06'816.1
2017-Jun-19 23:31N 60°02' E 028°50'816.9
2017-Jun-19 23:01N 60°02' E 028°33'816.6
2017-Jun-19 22:30N 60°06' E 028°19'917.1
2017-Jun-19 22:01N 60°09' E 028°03'917.2
2017-Jun-19 21:31N 60°11' E 027°46'917.4
2017-Jun-19 21:01N 60°06' E 027°30'917.5
2017-Jun-19 20:31N 60°02' E 027°15'917.6
2017-Jun-19 20:01N 59°58' E 026°59'816.6
2017-Jun-19 19:30N 59°60' E 026°43'917.3
2017-Jun-19 19:01N 59°58' E 026°26'917.4
2017-Jun-19 18:31N 59°55' E 026°10'917.5
2017-Jun-19 18:01N 59°53' E 025°53'917.4
2017-Jun-19 17:30N 59°51' E 025°36'815.7
2017-Jun-19 17:01N 59°52' E 025°20'815.1
2017-Jun-19 16:31N 59°54' E 025°06'713.2
2017-Jun-19 16:01N 59°59' E 024°57'713.0
2017-Jun-19 15:30N 60°05' E 024°54'4 7.1
2017-Jun-19 14:58N 60°09' E 024°55'0 0.0
2017-Jun-19 14:30N 60°09' E 024°55'0 0.0
2017-Jun-19 13:29N 60°09' E 024°55'0 0.0
2017-Jun-19 12:59N 60°09' E 024°55'0 0.0
2017-Jun-19 12:29N 60°09' E 024°55'0 0.0
2017-Jun-19 11:59N 60°09' E 024°55'0 0.0
2017-Jun-19 11:29N 60°09' E 024°55'0 0.0
2017-Jun-19 10:59N 60°09' E 024°55'0 0.0
2017-Jun-19 10:29N 60°09' E 024°55'0 0.0
2017-Jun-19 09:59N 60°09' E 024°55'0 0.0
2017-Jun-19 09:29N 60°09' E 024°55'0 0.0
2017-Jun-19 08:59N 60°09' E 024°55'0 0.0
2017-Jun-19 08:28N 60°09' E 024°55'0 0.0
2017-Jun-19 07:58N 60°09' E 024°55'0 0.0
2017-Jun-19 07:28N 60°09' E 024°55'0 0.0
2017-Jun-19 06:58N 60°09' E 024°55'0 0.0
2017-Jun-19 06:28N 60°09' E 024°55'0 0.0
2017-Jun-19 05:58N 60°09' E 024°55'0 0.0
2017-Jun-19 05:28N 60°09' E 024°55'0 0.0
2017-Jun-19 05:00N 60°09' E 024°55'0 0.0
2017-Jun-19 04:30N 60°09' E 024°55'0 0.0
2017-Jun-19 04:00N 60°09' E 024°55'1 1.6
2017-Jun-19 03:30N 60°08' E 024°54'713.3
2017-Jun-19 03:00N 60°02' E 024°55'714.8
2017-Jun-19 02:31N 59°54' E 024°57'713.7
2017-Jun-19 02:01N 59°48' E 024°55'815.1
2017-Jun-19 01:31N 59°46' E 024°40'815.1
2017-Jun-19 01:00N 59°44' E 024°26'815.1
2017-Jun-19 00:31N 59°42' E 024°11'714.9
2017-Jun-19 00:01N 59°40' E 023°57'715.0
2017-Jun-18 23:31N 59°37' E 023°43'714.9
2017-Jun-18 23:00N 59°35' E 023°29'714.9
2017-Jun-18 22:31N 59°33' E 023°15'714.9
2017-Jun-18 22:01N 59°31' E 023°01'715.0
2017-Jun-18 21:31N 59°28' E 022°47'715.0
2017-Jun-18 21:01N 59°26' E 022°33'815.0
2017-Jun-18 20:31N 59°21' E 022°21'714.9
2017-Jun-18 20:01N 59°17' E 022°09'714.9
2017-Jun-18 19:31N 59°13' E 021°57'714.4
2017-Jun-18 19:01N 59°17' E 021°45'714.8
2017-Jun-18 18:31N 59°18' E 021°31'714.8
2017-Jun-18 18:01N 59°18' E 021°16'714.8
2017-Jun-18 17:31N 59°19' E 021°02'814.9
2017-Jun-18 17:00N 59°19' E 020°47'714.7
2017-Jun-18 16:31N 59°20' E 020°33'714.9
2017-Jun-18 16:01N 59°21' E 020°18'714.0
2017-Jun-18 15:31N 59°24' E 020°06'714.8
2017-Jun-18 15:01N 59°31' E 020°04'1414.4
2017-Jun-18 14:01N 59°43' E 019°47'714.5
2017-Jun-18 13:31N 59°47' E 019°35'714.6
2017-Jun-18 13:00N 59°46' E 019°21'714.4
2017-Jun-18 12:30N 59°43' E 019°07'714.4
2017-Jun-18 12:00N 59°40' E 018°55'510.5
2017-Jun-18 11:30N 59°36' E 018°47'611.3
2017-Jun-18 11:00N 59°34' E 018°38'5 9.7
2017-Jun-18 10:30N 59°31' E 018°30'4 8.1
2017-Jun-18 10:01N 59°27' E 018°26'4 8.3
2017-Jun-18 09:30N 59°23' E 018°27'4 6.8
2017-Jun-18 08:58N 59°22' E 018°20'510.9
2017-Jun-18 08:31N 59°20' E 018°11'2 3.4
2017-Jun-18 08:00N 59°21' E 018°08'0 0.0
2017-Jun-18 07:28N 59°21' E 018°08'0 0.0
2017-Jun-18 06:58N 59°21' E 018°08'0 0.0
2017-Jun-18 06:28N 59°21' E 018°08'0 0.0
2017-Jun-18 05:58N 59°21' E 018°08'0 0.0
2017-Jun-18 05:26N 59°21' E 018°08'0 0.0
2017-Jun-18 04:56N 59°21' E 018°08'0 0.0
2017-Jun-18 04:26N 59°21' E 018°08'0 0.0
2017-Jun-18 03:59N 59°21' E 018°08'0 0.0
2017-Jun-18 03:27N 59°21' E 018°08'0 0.0
2017-Jun-18 03:00N 59°21' E 018°08'0 0.0
2017-Jun-18 02:29N 59°21' E 018°08'0 0.0
2017-Jun-18 02:00N 59°21' E 018°08'0 0.0
2017-Jun-18 01:23N 59°21' E 018°08'0 0.0
2017-Jun-18 00:47N 59°21' E 018°08'0 0.0
2017-Jun-18 00:29N 59°21' E 018°08'0 0.0
2017-Jun-17 23:59N 59°21' E 018°08'0 0.0
2017-Jun-17 23:25N 59°21' E 018°08'0 0.0
2017-Jun-17 22:55N 59°21' E 018°08'0 0.0
2017-Jun-17 22:27N 59°21' E 018°08'0 0.0
2017-Jun-17 21:57N 59°21' E 018°08'0 0.0
2017-Jun-17 21:30N 59°21' E 018°08'0 0.0
2017-Jun-17 20:57N 59°21' E 018°08'0 0.0
2017-Jun-17 20:21N 59°21' E 018°08'0 0.0
2017-Jun-17 19:56N 59°21' E 018°08'0 0.0
2017-Jun-17 19:26N 59°21' E 018°08'0 0.0
2017-Jun-17 19:00N 59°21' E 018°08'0 0.0
2017-Jun-17 18:30N 59°21' E 018°08'0 0.0
2017-Jun-17 18:00N 59°21' E 018°08'0 0.0
2017-Jun-17 17:30N 59°21' E 018°08'0 0.0
2017-Jun-17 17:00N 59°21' E 018°08'0 0.0
2017-Jun-17 16:30N 59°21' E 018°08'0 0.0
2017-Jun-17 16:00N 59°21' E 018°08'0 0.0
2017-Jun-17 15:24N 59°21' E 018°08'0 0.0
2017-Jun-17 15:00N 59°21' E 018°08'0 0.0
2017-Jun-17 14:30N 59°21' E 018°08'0 0.0
2017-Jun-17 13:30N 59°21' E 018°08'0 0.0
2017-Jun-17 13:00N 59°21' E 018°08'0 0.0
2017-Jun-17 12:26N 59°21' E 018°08'0 0.0
2017-Jun-17 11:58N 59°21' E 018°08'0 0.0
2017-Jun-17 11:27N 59°21' E 018°08'0 0.0
2017-Jun-17 10:57N 59°21' E 018°08'0 0.0
2017-Jun-17 10:30N 59°21' E 018°08'0 0.0
2017-Jun-17 09:58N 59°21' E 018°08'0 0.0
2017-Jun-17 09:28N 59°21' E 018°08'0 0.0
2017-Jun-17 08:58N 59°21' E 018°08'0 0.0
2017-Jun-17 08:28N 59°21' E 018°08'0 0.0
2017-Jun-17 08:00N 59°21' E 018°08'0 0.0
2017-Jun-17 07:26N 59°21' E 018°08'0 0.0
2017-Jun-17 06:56N 59°21' E 018°08'0 0.0
2017-Jun-17 06:26N 59°21' E 018°08'0 0.0
2017-Jun-17 05:59N 59°21' E 018°08'0 0.0
2017-Jun-17 05:25N 59°21' E 018°08'0 0.0
2017-Jun-17 04:57N 59°21' E 018°08'0 0.0
2017-Jun-17 04:30N 59°21' E 018°08'0 0.0
2017-Jun-17 03:59N 59°21' E 018°08'0 0.0
2017-Jun-17 03:29N 59°21' E 018°08'0 0.0
2017-Jun-17 02:58N 59°21' E 018°08'0 0.0
2017-Jun-17 02:28N 59°21' E 018°08'0 0.0
2017-Jun-17 01:58N 59°21' E 018°08'0 0.0
2017-Jun-17 01:28N 59°21' E 018°08'0 0.0
2017-Jun-17 00:58N 59°21' E 018°08'0 0.0
2017-Jun-17 00:28N 59°21' E 018°08'0 0.0
2017-Jun-16 23:52N 59°21' E 018°08'0 0.0
2017-Jun-16 23:30N 59°21' E 018°08'0 0.0
2017-Jun-16 23:01N 59°21' E 018°08'0 0.0
2017-Jun-16 22:28N 59°21' E 018°08'0 0.0
2017-Jun-16 21:53N 59°21' E 018°08'0 0.0
2017-Jun-16 21:25N 59°21' E 018°08'0 0.0
2017-Jun-16 21:01N 59°21' E 018°08'0 0.0
2017-Jun-16 20:24N 59°21' E 018°08'0 0.0
2017-Jun-16 19:56N 59°21' E 018°08'0 0.0
2017-Jun-16 19:26N 59°21' E 018°08'0 0.0
2017-Jun-16 18:59N 59°21' E 018°08'0 0.0
2017-Jun-16 18:26N 59°21' E 018°08'0 0.0
2017-Jun-16 17:58N 59°21' E 018°08'0 0.0
2017-Jun-16 17:19N 59°21' E 018°08'0 0.0
2017-Jun-16 16:55N 59°21' E 018°08'0 0.0
2017-Jun-16 16:25N 59°21' E 018°08'0 0.0
2017-Jun-16 15:55N 59°21' E 018°08'0 0.2
2017-Jun-16 15:23N 59°21' E 018°08'1 1.8
2017-Jun-16 14:59N 59°21' E 018°07'0 0.0
2017-Jun-16 14:29N 59°21' E 018°07'0 0.0
2017-Jun-16 13:28N 59°21' E 018°07'0 0.0
2017-Jun-16 12:54N 59°21' E 018°07'0 0.0
2017-Jun-16 12:30N 59°21' E 018°07'0 0.0
2017-Jun-16 12:00N 59°21' E 018°07'0 0.0
2017-Jun-16 11:28N 59°21' E 018°07'0 0.0
2017-Jun-16 10:58N 59°21' E 018°07'0 0.0
2017-Jun-16 10:31N 59°21' E 018°07'0 0.0
2017-Jun-16 09:56N 59°21' E 018°07'0 0.0
2017-Jun-16 09:23N 59°21' E 018°07'0 0.0
2017-Jun-16 08:57N 59°21' E 018°07'0 0.0
2017-Jun-16 08:27N 59°21' E 018°07'0 0.0
2017-Jun-16 07:55N 59°21' E 018°07'0 0.0
2017-Jun-16 07:27N 59°21' E 018°07'0 0.0
2017-Jun-16 06:51N 59°21' E 018°07'0 0.1
2017-Jun-16 06:30N 59°21' E 018°07'2 4.2
2017-Jun-16 06:00N 59°20' E 018°10'510.6
2017-Jun-16 05:30N 59°23' E 018°20'4 7.4
2017-Jun-16 05:00N 59°23' E 018°27'4 7.9
2017-Jun-16 04:31N 59°27' E 018°25'510.8
2017-Jun-16 04:00N 59°31' E 018°31'5 9.9
2017-Jun-16 03:30N 59°34' E 018°39'612.0
2017-Jun-16 03:00N 59°37' E 018°50'5 9.7
2017-Jun-16 02:30N 59°40' E 018°57'714.9
2017-Jun-16 02:00N 59°44' E 019°10'714.9
2017-Jun-16 01:30N 59°47' E 019°24'611.0
2017-Jun-16 01:00N 59°48' E 019°34'612.6
2017-Jun-16 00:31N 59°47' E 019°47'917.2
2017-Jun-16 00:00N 59°41' E 019°59'816.4
2017-Jun-15 23:31N 59°37' E 020°13'917.4
2017-Jun-15 23:01N 59°37' E 020°30'917.3
2017-Jun-15 22:31N 59°34' E 020°46'917.5
2017-Jun-15 22:00N 59°31' E 021°02'917.4
2017-Jun-15 21:31N 59°28' E 021°18'917.3
2017-Jun-15 21:01N 59°26' E 021°35'917.5
2017-Jun-15 20:30N 59°26' E 021°52'917.6
2017-Jun-15 20:01N 59°25' E 022°09'917.2
2017-Jun-15 19:30N 59°29' E 022°25'917.3
2017-Jun-15 19:00N 59°32' E 022°40'917.2
2017-Jun-15 18:31N 59°34' E 022°57'917.3
2017-Jun-15 18:01N 59°36' E 023°13'714.3
2017-Jun-15 17:31N 59°33' E 023°26'714.8
2017-Jun-15 17:01N 59°31' E 023°40'917.9
2017-Jun-15 16:31N 59°31' E 023°58'816.4
2017-Jun-15 16:00N 59°31' E 024°14'917.1
2017-Jun-15 15:30N 59°30' E 024°31'612.6
2017-Jun-15 15:00N 59°32' E 024°43'5 5.1
2017-Jun-15 13:58N 59°27' E 024°46'0 0.0
2017-Jun-15 13:29N 59°27' E 024°46'0 0.0
2017-Jun-15 12:58N 59°27' E 024°46'0 0.0
2017-Jun-15 12:29N 59°27' E 024°46'0 0.0
2017-Jun-15 11:59N 59°27' E 024°46'0 0.0
2017-Jun-15 11:30N 59°27' E 024°46'0 0.0
2017-Jun-15 10:58N 59°27' E 024°46'0 0.0
2017-Jun-15 10:30N 59°27' E 024°46'0 0.0
2017-Jun-15 09:59N 59°27' E 024°46'1 0.3
2017-Jun-15 04:52N 59°28' E 024°45'513.7
2017-Jun-15 04:29N 59°34' E 024°42'612.4
2017-Jun-15 04:00N 59°40' E 024°42'5214.4
2017-Jun-15 00:21N 59°59' E 026°19'515.4
2017-Jun-15 00:00N 60°01' E 026°29'714.9
2017-Jun-14 23:30N 60°01' E 026°44'815.2
2017-Jun-14 22:59N 59°60' E 026°59'714.8
2017-Jun-14 22:30N 60°03' E 027°12'815.0
2017-Jun-14 22:00N 60°06' E 027°25'715.0
2017-Jun-14 21:30N 60°10' E 027°38'713.6
2017-Jun-14 21:01N 60°11' E 027°51'714.6
2017-Jun-14 20:30N 60°09' E 028°06'714.4
2017-Jun-14 20:00N 60°07' E 028°19'714.4
2017-Jun-14 19:31N 60°03' E 028°32'714.6
2017-Jun-14 19:00N 60°03' E 028°46'714.4
2017-Jun-14 18:30N 60°02' E 029°01'814.6
2017-Jun-14 17:59N 60°02' E 029°16'1212.0
2017-Jun-14 17:00N 59°60' E 029°39'5 9.8
2017-Jun-14 16:30N 59°58' E 029°48'611.7
2017-Jun-14 16:00N 59°56' E 029°59'510.0
2017-Jun-14 15:30N 59°57' E 030°08'1 2.8
2017-Jun-14 15:00N 59°57' E 030°11'0 0.0
2017-Jun-14 14:00N 59°57' E 030°11'0 0.0
2017-Jun-14 13:26N 59°57' E 030°11'0 0.0
2017-Jun-14 12:59N 59°57' E 030°11'0 0.0
2017-Jun-14 12:28N 59°57' E 030°11'0 0.0
2017-Jun-14 11:57N 59°57' E 030°11'0 0.0
2017-Jun-14 11:30N 59°57' E 030°11'0 0.0
2017-Jun-14 10:58N 59°57' E 030°11'0 0.0
2017-Jun-14 10:30N 59°57' E 030°11'0 0.0
2017-Jun-14 09:59N 59°57' E 030°11'0 0.0
2017-Jun-14 09:28N 59°57' E 030°11'0 0.0
2017-Jun-14 09:00N 59°57' E 030°11'0 0.0
2017-Jun-14 08:23N 59°57' E 030°11'0 0.0
2017-Jun-14 07:58N 59°57' E 030°11'0 0.0
2017-Jun-14 07:30N 59°57' E 030°11'0 0.0
2017-Jun-14 06:58N 59°57' E 030°11'0 0.0
2017-Jun-14 06:30N 59°57' E 030°11'0 0.0
2017-Jun-14 05:59N 59°57' E 030°11'0 0.0
2017-Jun-14 05:24N 59°57' E 030°11'0 0.0
2017-Jun-14 05:00N 59°57' E 030°11'0 0.0
2017-Jun-14 04:30N 59°57' E 030°11'0 0.0
2017-Jun-14 03:59N 59°57' E 030°11'0 0.0
2017-Jun-14 03:30N 59°57' E 030°11'0 0.0
2017-Jun-14 03:00N 59°57' E 030°11'0 0.0
2017-Jun-14 02:30N 59°57' E 030°11'0 0.0
2017-Jun-14 01:56N 59°57' E 030°11'0 0.0
2017-Jun-14 01:30N 59°57' E 030°11'0 0.0
2017-Jun-14 01:00N 59°57' E 030°11'0 0.0
2017-Jun-14 00:30N 59°57' E 030°11'0 0.0
2017-Jun-13 23:59N 59°57' E 030°11'0 0.0
2017-Jun-13 23:30N 59°57' E 030°11'0 0.0
2017-Jun-13 23:00N 59°57' E 030°11'0 0.0
2017-Jun-13 22:29N 59°57' E 030°11'0 0.0
2017-Jun-13 21:59N 59°57' E 030°11'0 0.0
2017-Jun-13 21:28N 59°57' E 030°11'0 0.0
2017-Jun-13 20:55N 59°57' E 030°11'0 0.0
2017-Jun-13 20:30N 59°57' E 030°11'0 0.0
2017-Jun-13 19:59N 59°57' E 030°11'0 0.0
2017-Jun-13 19:28N 59°57' E 030°11'0 0.0
2017-Jun-13 19:00N 59°57' E 030°11'0 0.0
2017-Jun-13 18:29N 59°57' E 030°11'0 0.0
2017-Jun-13 18:00N 59°57' E 030°11'0 0.0
2017-Jun-13 17:29N 59°57' E 030°11'0 0.0
2017-Jun-13 16:59N 59°57' E 030°11'  
Track history (hours):
 
Tides and Currents Weather Stations Pressure Air Temp Water Temp Dewpoint Dewpoint Depression Visibility Wind Speed Wind Dir Waves Ship Positions

Costa Mediterranea

Last reported at 2017-Jun-23 16:59 UTC. Time now 2017-Jun-23 17:23 UTC.
Position N 59°21' E 018°08'.

Length 293 m; draft 8 m.

Type: Passenger vessel. MMSI: 247088200.

Date/timePositionNaut miles runAvg speedWind from/ knotsBaromVisibWave heightAir tempDewpointWater temp
2017-Jun-23 16:59N 59°21' E 018°08'0 0.0
2017-Jun-23 16:25N 59°21' E 018°08'0 0.0
2017-Jun-23 15:55N 59°21' E 018°08'0 0.0
2017-Jun-23 15:25N 59°21' E 018°08'1 1.3
2017-Jun-23 15:00N 59°21' E 018°07'0 0.3
2017-Jun-23 14:00N 59°21' E 018°07'0 0.0
2017-Jun-23 13:30N 59°21' E 018°07'0 0.0
2017-Jun-23 12:56N 59°21' E 018°07'0 0.0
2017-Jun-23 12:26N 59°21' E 018°07'0 0.0
2017-Jun-23 11:59N 59°21' E 018°07'0 0.0
2017-Jun-23 11:29N 59°21' E 018°07'0 0.0
2017-Jun-23 10:59N 59°21' E 018°07'0 0.0
2017-Jun-23 10:19N 59°21' E 018°07'0 0.0
2017-Jun-23 10:00N 59°21' E 018°07'0 0.0
2017-Jun-23 09:30N 59°21' E 018°07'0 0.0
2017-Jun-23 08:59N 59°21' E 018°07'0 0.0
2017-Jun-23 08:31N 59°21' E 018°07'0 0.0
2017-Jun-23 07:59N 59°21' E 018°07'0 0.0
2017-Jun-23 07:25N 59°21' E 018°07'0 0.0
2017-Jun-23 06:57N 59°21' E 018°07'1 1.4
2017-Jun-23 06:30N 59°21' E 018°08'4 8.4
2017-Jun-23 06:00N 59°22' E 018°16'5 9.1
2017-Jun-23 05:30N 59°22' E 018°25'3 6.8
2017-Jun-23 05:00N 59°25' E 018°24'510.4
2017-Jun-23 04:30N 59°30' E 018°28'5 9.7
2017-Jun-23 04:00N 59°33' E 018°36'611.2
2017-Jun-23 03:30N 59°36' E 018°45'611.7
2017-Jun-23 03:00N 59°39' E 018°55'612.7
2017-Jun-23 02:30N 59°43' E 019°05'917.8
2017-Jun-23 02:01N 59°46' E 019°21'714.6
2017-Jun-23 01:31N 59°48' E 019°35'713.2
2017-Jun-23 01:00N 59°47' E 019°48'714.3
2017-Jun-23 00:30N 59°41' E 019°58'713.6
2017-Jun-23 00:01N 59°37' E 020°08'714.1
2017-Jun-22 23:30N 59°37' E 020°22'714.0
2017-Jun-22 23:01N 59°36' E 020°36'714.1
2017-Jun-22 22:30N 59°33' E 020°49'714.0
2017-Jun-22 22:00N 59°31' E 021°02'714.2
2017-Jun-22 21:30N 59°28' E 021°15'714.3
2017-Jun-22 21:00N 59°26' E 021°29'714.6
2017-Jun-22 20:30N 59°26' E 021°43'714.4
2017-Jun-22 20:01N 59°26' E 021°57'714.1
2017-Jun-22 19:30N 59°26' E 022°11'917.2
2017-Jun-22 19:00N 59°29' E 022°27'917.1
2017-Jun-22 18:31N 59°31' E 022°43'816.9
2017-Jun-22 18:01N 59°33' E 022°60'816.9
2017-Jun-22 17:31N 59°34' E 023°16'817.0
2017-Jun-22 17:01N 59°32' E 023°33'816.7
2017-Jun-22 16:30N 59°31' E 023°49'816.4
2017-Jun-22 16:01N 59°31' E 024°05'816.2
2017-Jun-22 15:31N 59°30' E 024°21'815.3
2017-Jun-22 15:01N 59°31' E 024°36'5 9.4
2017-Jun-22 14:31N 59°30' E 024°45'4 3.4
2017-Jun-22 13:28N 59°27' E 024°46'0 0.0
2017-Jun-22 12:58N 59°27' E 024°46'0 0.0
2017-Jun-22 12:28N 59°27' E 024°46'0 0.0
2017-Jun-22 12:00N 59°27' E 024°46'0 0.0
2017-Jun-22 11:29N 59°27' E 024°46'0 0.0
2017-Jun-22 10:59N 59°27' E 024°46'0 0.0
2017-Jun-22 10:29N 59°27' E 024°46'0 0.0
2017-Jun-22 09:59N 59°27' E 024°46'0 0.0
2017-Jun-22 09:26N 59°27' E 024°46'0 0.0
2017-Jun-22 08:59N 59°27' E 024°46'0 0.0
2017-Jun-22 08:28N 59°27' E 024°46'0 0.0
2017-Jun-22 08:01N 59°27' E 024°46'0 0.0
2017-Jun-22 07:30N 59°27' E 024°46'0 0.0
2017-Jun-22 07:00N 59°27' E 024°46'0 0.0
2017-Jun-22 06:29N 59°27' E 024°46'0 0.0
2017-Jun-22 05:58N 59°27' E 024°46'0 0.0
2017-Jun-22 05:30N 59°27' E 024°46'0 0.4
2017-Jun-22 05:00N 59°27' E 024°46'713.2
2017-Jun-22 04:31N 59°33' E 024°42'713.0
2017-Jun-22 04:00N 59°40' E 024°43'714.1
2017-Jun-22 03:30N 59°44' E 024°54'714.1
2017-Jun-22 03:01N 59°50' E 025°01'713.6
2017-Jun-22 02:31N 59°52' E 025°14'714.2
2017-Jun-22 02:01N 59°53' E 025°28'714.3
2017-Jun-22 01:30N 59°54' E 025°42'714.5
2017-Jun-22 01:00N 59°56' E 025°56'714.5
2017-Jun-22 00:31N 59°58' E 026°10'714.8
2017-Jun-22 00:00N 59°60' E 026°25'714.4
2017-Jun-21 23:30N 60°01' E 026°39'714.6
2017-Jun-21 23:01N 60°00' E 026°53'816.7
2017-Jun-21 22:30N 60°02' E 027°10'917.8
2017-Jun-21 22:01N 60°06' E 027°25'917.8
2017-Jun-21 21:31N 60°11' E 027°41'816.4
2017-Jun-21 21:00N 60°11' E 027°57'917.4
2017-Jun-21 20:31N 60°09' E 028°14'917.1
2017-Jun-21 20:01N 60°04' E 028°28'917.1
2017-Jun-21 19:31N 60°03' E 028°45'917.4
2017-Jun-21 19:00N 60°02' E 029°03'816.4
2017-Jun-21 18:30N 60°02' E 029°19'1310.4
2017-Jun-21 17:14N 59°59' E 029°45'210.5
2017-Jun-21 17:00N 59°57' E 029°49'611.3
2017-Jun-21 16:30N 59°55' E 029°60'510.0
2017-Jun-21 16:00N 59°57' E 030°09'1 2.3
2017-Jun-21 15:30N 59°57' E 030°11'0 0.0
2017-Jun-21 14:59N 59°57' E 030°11'0 0.0
2017-Jun-21 14:29N 59°57' E 030°11'0 0.0
2017-Jun-21 13:28N 59°57' E 030°11'0 0.0
2017-Jun-21 12:57N 59°57' E 030°11'0 0.0
2017-Jun-21 12:29N 59°57' E 030°11'0 0.0
2017-Jun-21 11:57N 59°57' E 030°11'0 0.0
2017-Jun-21 11:29N 59°57' E 030°11'0 0.0
2017-Jun-21 10:58N 59°57' E 030°11'0 0.0
2017-Jun-21 10:30N 59°57' E 030°11'0 0.0
2017-Jun-21 09:58N 59°57' E 030°11'0 0.0
2017-Jun-21 09:30N 59°57' E 030°11'0 0.0
2017-Jun-21 08:59N 59°57' E 030°11'0 0.0
2017-Jun-21 08:28N 59°57' E 030°11'0 0.0
2017-Jun-21 07:58N 59°57' E 030°11'0 0.0
2017-Jun-21 07:30N 59°57' E 030°11'0 0.0
2017-Jun-21 07:00N 59°57' E 030°11'0 0.0
2017-Jun-21 06:29N 59°57' E 030°11'0 0.0
2017-Jun-21 05:57N 59°57' E 030°11'0 0.0
2017-Jun-21 05:30N 59°57' E 030°11'0 0.0
2017-Jun-21 04:59N 59°57' E 030°11'0 0.0
2017-Jun-21 04:28N 59°57' E 030°11'0 0.0
2017-Jun-21 03:59N 59°57' E 030°11'0 0.0
2017-Jun-21 03:31N 59°57' E 030°11'0 0.0
2017-Jun-21 02:56N 59°57' E 030°11'0 0.0
2017-Jun-21 02:24N 59°57' E 030°11'0 0.0
2017-Jun-21 01:59N 59°57' E 030°11'0 0.0
2017-Jun-21 01:28N 59°57' E 030°11'0 0.0
2017-Jun-21 00:58N 59°57' E 030°11'0 0.0
2017-Jun-21 00:31N 59°57' E 030°11'0 0.0
2017-Jun-20 23:58N 59°57' E 030°11'0 0.0
2017-Jun-20 23:30N 59°57' E 030°11'0 0.0
2017-Jun-20 23:00N 59°57' E 030°11'0 0.0
2017-Jun-20 22:30N 59°57' E 030°11'0 0.0
2017-Jun-20 22:00N 59°57' E 030°11'0 0.0
2017-Jun-20 21:30N 59°57' E 030°11'0 0.0
2017-Jun-20 21:00N 59°57' E 030°11'0 0.0
2017-Jun-20 20:30N 59°57' E 030°11'0 0.0
2017-Jun-20 19:59N 59°57' E 030°11'0 0.0
2017-Jun-20 19:28N 59°57' E 030°11'0 0.0
2017-Jun-20 18:58N 59°57' E 030°11'0 0.0
2017-Jun-20 18:31N 59°57' E 030°11'0 0.0
2017-Jun-20 17:58N 59°57' E 030°11'0 0.0
2017-Jun-20 17:29N 59°57' E 030°11'0 0.0
2017-Jun-20 16:59N 59°57' E 030°11'0 0.0
2017-Jun-20 16:30N 59°57' E 030°11'0 0.0
2017-Jun-20 15:58N 59°57' E 030°11'0 0.0
2017-Jun-20 15:30N 59°57' E 030°11'0 0.0
2017-Jun-20 14:59N 59°57' E 030°11'0 0.0
2017-Jun-20 14:24N 59°57' E 030°11'0 0.0
2017-Jun-20 13:28N 59°57' E 030°11'0 0.0
2017-Jun-20 13:00N 59°57' E 030°11'0 0.0
2017-Jun-20 12:30N 59°57' E 030°11'0 0.0
2017-Jun-20 12:00N 59°57' E 030°11'0 0.0
2017-Jun-20 11:28N 59°57' E 030°11'0 0.0
2017-Jun-20 11:00N 59°57' E 030°11'0 0.0
2017-Jun-20 10:29N 59°57' E 030°11'0 0.0
2017-Jun-20 09:58N 59°57' E 030°11'0 0.0
2017-Jun-20 09:30N 59°57' E 030°11'0 0.0
2017-Jun-20 09:00N 59°57' E 030°11'0 0.0
2017-Jun-20 08:30N 59°57' E 030°11'0 0.0
2017-Jun-20 08:00N 59°57' E 030°11'0 0.0
2017-Jun-20 03:12N 59°57' E 030°11'0 0.6
2017-Jun-20 03:00N 59°57' E 030°11'4 8.4
2017-Jun-20 02:30N 59°56' E 030°03'510.0
2017-Jun-20 01:58N 59°57' E 029°52'4 9.7
2017-Jun-20 01:31N 59°59' E 029°44'611.6
2017-Jun-20 01:01N 60°01' E 029°33'611.1
2017-Jun-20 00:31N 60°02' E 029°22'815.8
2017-Jun-20 00:00N 60°02' E 029°06'816.1
2017-Jun-19 23:31N 60°02' E 028°50'816.9
2017-Jun-19 23:01N 60°02' E 028°33'816.6
2017-Jun-19 22:30N 60°06' E 028°19'917.1
2017-Jun-19 22:01N 60°09' E 028°03'917.2
2017-Jun-19 21:31N 60°11' E 027°46'917.4
2017-Jun-19 21:01N 60°06' E 027°30'917.5
2017-Jun-19 20:31N 60°02' E 027°15'917.6
2017-Jun-19 20:01N 59°58' E 026°59'816.6
2017-Jun-19 19:30N 59°60' E 026°43'917.3
2017-Jun-19 19:01N 59°58' E 026°26'917.4
2017-Jun-19 18:31N 59°55' E 026°10'917.5
2017-Jun-19 18:01N 59°53' E 025°53'917.4
2017-Jun-19 17:30N 59°51' E 025°36'815.7
2017-Jun-19 17:01N 59°52' E 025°20'815.1
2017-Jun-19 16:31N 59°54' E 025°06'713.2
2017-Jun-19 16:01N 59°59' E 024°57'713.0
2017-Jun-19 15:30N 60°05' E 024°54'4 7.1
2017-Jun-19 14:58N 60°09' E 024°55'0 0.0
2017-Jun-19 14:30N 60°09' E 024°55'0 0.0
2017-Jun-19 13:29N 60°09' E 024°55'0 0.0
2017-Jun-19 12:59N 60°09' E 024°55'0 0.0
2017-Jun-19 12:29N 60°09' E 024°55'0 0.0
2017-Jun-19 11:59N 60°09' E 024°55'0 0.0
2017-Jun-19 11:29N 60°09' E 024°55'0 0.0
2017-Jun-19 10:59N 60°09' E 024°55'0 0.0
2017-Jun-19 10:29N 60°09' E 024°55'0 0.0
2017-Jun-19 09:59N 60°09' E 024°55'0 0.0
2017-Jun-19 09:29N 60°09' E 024°55'0 0.0
2017-Jun-19 08:59N 60°09' E 024°55'0 0.0
2017-Jun-19 08:28N 60°09' E 024°55'0 0.0
2017-Jun-19 07:58N 60°09' E 024°55'0 0.0
2017-Jun-19 07:28N 60°09' E 024°55'0 0.0
2017-Jun-19 06:58N 60°09' E 024°55'0 0.0
2017-Jun-19 06:28N 60°09' E 024°55'0 0.0
2017-Jun-19 05:58N 60°09' E 024°55'0 0.0
2017-Jun-19 05:28N 60°09' E 024°55'0 0.0
2017-Jun-19 05:00N 60°09' E 024°55'0 0.0
2017-Jun-19 04:30N 60°09' E 024°55'0 0.0
2017-Jun-19 04:00N 60°09' E 024°55'1 1.6
2017-Jun-19 03:30N 60°08' E 024°54'713.3
2017-Jun-19 03:00N 60°02' E 024°55'714.8
2017-Jun-19 02:31N 59°54' E 024°57'713.7
2017-Jun-19 02:01N 59°48' E 024°55'815.1
2017-Jun-19 01:31N 59°46' E 024°40'815.1
2017-Jun-19 01:00N 59°44' E 024°26'815.1
2017-Jun-19 00:31N 59°42' E 024°11'714.9
2017-Jun-19 00:01N 59°40' E 023°57'715.0
2017-Jun-18 23:31N 59°37' E 023°43'714.9
2017-Jun-18 23:00N 59°35' E 023°29'714.9
2017-Jun-18 22:31N 59°33' E 023°15'714.9
2017-Jun-18 22:01N 59°31' E 023°01'715.0
2017-Jun-18 21:31N 59°28' E 022°47'715.0
2017-Jun-18 21:01N 59°26' E 022°33'815.0
2017-Jun-18 20:31N 59°21' E 022°21'714.9
2017-Jun-18 20:01N 59°17' E 022°09'714.9
2017-Jun-18 19:31N 59°13' E 021°57'714.4
2017-Jun-18 19:01N 59°17' E 021°45'714.8
2017-Jun-18 18:31N 59°18' E 021°31'714.8
2017-Jun-18 18:01N 59°18' E 021°16'714.8
2017-Jun-18 17:31N 59°19' E 021°02'814.9
2017-Jun-18 17:00N 59°19' E 020°47'714.7
2017-Jun-18 16:31N 59°20' E 020°33'714.9
2017-Jun-18 16:01N 59°21' E 020°18'714.0
2017-Jun-18 15:31N 59°24' E 020°06'714.8
2017-Jun-18 15:01N 59°31' E 020°04'1414.4
2017-Jun-18 14:01N 59°43' E 019°47'714.5
2017-Jun-18 13:31N 59°47' E 019°35'714.6
2017-Jun-18 13:00N 59°46' E 019°21'714.4
2017-Jun-18 12:30N 59°43' E 019°07'714.4
2017-Jun-18 12:00N 59°40' E 018°55'510.5
2017-Jun-18 11:30N 59°36' E 018°47'611.3
2017-Jun-18 11:00N 59°34' E 018°38'5 9.7
2017-Jun-18 10:30N 59°31' E 018°30'4 8.1
2017-Jun-18 10:01N 59°27' E 018°26'4 8.3
2017-Jun-18 09:30N 59°23' E 018°27'4 6.8
2017-Jun-18 08:58N 59°22' E 018°20'510.9
2017-Jun-18 08:31N 59°20' E 018°11'2 3.4
2017-Jun-18 08:00N 59°21' E 018°08'0 0.0
2017-Jun-18 07:28N 59°21' E 018°08'0 0.0
2017-Jun-18 06:58N 59°21' E 018°08'0 0.0
2017-Jun-18 06:28N 59°21' E 018°08'0 0.0
2017-Jun-18 05:58N 59°21' E 018°08'0 0.0
2017-Jun-18 05:26N 59°21' E 018°08'0 0.0
2017-Jun-18 04:56N 59°21' E 018°08'0 0.0
2017-Jun-18 04:26N 59°21' E 018°08'0 0.0
2017-Jun-18 03:59N 59°21' E 018°08'0 0.0
2017-Jun-18 03:27N 59°21' E 018°08'0 0.0
2017-Jun-18 03:00N 59°21' E 018°08'0 0.0
2017-Jun-18 02:29N 59°21' E 018°08'0 0.0
2017-Jun-18 02:00N 59°21' E 018°08'0 0.0
2017-Jun-18 01:23N 59°21' E 018°08'0 0.0
2017-Jun-18 00:47N 59°21' E 018°08'0 0.0
2017-Jun-18 00:29N 59°21' E 018°08'0 0.0
2017-Jun-17 23:59N 59°21' E 018°08'0 0.0
2017-Jun-17 23:25N 59°21' E 018°08'0 0.0
2017-Jun-17 22:55N 59°21' E 018°08'0 0.0
2017-Jun-17 22:27N 59°21' E 018°08'0 0.0
2017-Jun-17 21:57N 59°21' E 018°08'0 0.0
2017-Jun-17 21:30N 59°21' E 018°08'0 0.0
2017-Jun-17 20:57N 59°21' E 018°08'0 0.0
2017-Jun-17 20:21N 59°21' E 018°08'0 0.0
2017-Jun-17 19:56N 59°21' E 018°08'0 0.0
2017-Jun-17 19:26N 59°21' E 018°08'0 0.0
2017-Jun-17 19:00N 59°21' E 018°08'0 0.0
2017-Jun-17 18:30N 59°21' E 018°08'0 0.0
2017-Jun-17 18:00N 59°21' E 018°08'0 0.0
2017-Jun-17 17:30N 59°21' E 018°08'0 0.0
2017-Jun-17 17:00N 59°21' E 018°08'0 0.0
2017-Jun-17 16:30N 59°21' E 018°08'0 0.0
2017-Jun-17 16:00N 59°21' E 018°08'0 0.0
2017-Jun-17 15:24N 59°21' E 018°08'0 0.0
2017-Jun-17 15:00N 59°21' E 018°08'0 0.0
2017-Jun-17 14:30N 59°21' E 018°08'0 0.0
2017-Jun-17 13:30N 59°21' E 018°08'0 0.0
2017-Jun-17 13:00N 59°21' E 018°08'0 0.0
2017-Jun-17 12:26N 59°21' E 018°08'0 0.0
2017-Jun-17 11:58N 59°21' E 018°08'0 0.0
2017-Jun-17 11:27N 59°21' E 018°08'0 0.0
2017-Jun-17 10:57N 59°21' E 018°08'0 0.0
2017-Jun-17 10:30N 59°21' E 018°08'0 0.0
2017-Jun-17 09:58N 59°21' E 018°08'0 0.0
2017-Jun-17 09:28N 59°21' E 018°08'0 0.0
2017-Jun-17 08:58N 59°21' E 018°08'0 0.0
2017-Jun-17 08:28N 59°21' E 018°08'0 0.0
2017-Jun-17 08:00N 59°21' E 018°08'0 0.0
2017-Jun-17 07:26N 59°21' E 018°08'0 0.0
2017-Jun-17 06:56N 59°21' E 018°08'0 0.0
2017-Jun-17 06:26N 59°21' E 018°08'0 0.0
2017-Jun-17 05:59N 59°21' E 018°08'0 0.0
2017-Jun-17 05:25N 59°21' E 018°08'0 0.0
2017-Jun-17 04:57N 59°21' E 018°08'0 0.0
2017-Jun-17 04:30N 59°21' E 018°08'0 0.0
2017-Jun-17 03:59N 59°21' E 018°08'0 0.0
2017-Jun-17 03:29N 59°21' E 018°08'0 0.0
2017-Jun-17 02:58N 59°21' E 018°08'0 0.0
2017-Jun-17 02:28N 59°21' E 018°08'0 0.0
2017-Jun-17 01:58N 59°21' E 018°08'0 0.0
2017-Jun-17 01:28N 59°21' E 018°08'0 0.0
2017-Jun-17 00:58N 59°21' E 018°08'0 0.0
2017-Jun-17 00:28N 59°21' E 018°08'0 0.0
2017-Jun-16 23:52N 59°21' E 018°08'0 0.0
2017-Jun-16 23:30N 59°21' E 018°08'0 0.0
2017-Jun-16 23:01N 59°21' E 018°08'0 0.0
2017-Jun-16 22:28N 59°21' E 018°08'0 0.0
2017-Jun-16 21:53N 59°21' E 018°08'0 0.0
2017-Jun-16 21:25N 59°21' E 018°08'0 0.0
2017-Jun-16 21:01N 59°21' E 018°08'0 0.0
2017-Jun-16 20:24N 59°21' E 018°08'0 0.0
2017-Jun-16 19:56N 59°21' E 018°08'0 0.0
2017-Jun-16 19:26N 59°21' E 018°08'0 0.0
2017-Jun-16 18:59N 59°21' E 018°08'0 0.0
2017-Jun-16 18:26N 59°21' E 018°08'0 0.0
2017-Jun-16 17:58N 59°21' E 018°08'0 0.0
2017-Jun-16 17:19N 59°21' E 018°08'0 0.0
2017-Jun-16 16:55N 59°21' E 018°08'0 0.0
2017-Jun-16 16:25N 59°21' E 018°08'0 0.0
2017-Jun-16 15:55N 59°21' E 018°08'0 0.2
2017-Jun-16 15:23N 59°21' E 018°08'1 1.8
2017-Jun-16 14:59N 59°21' E 018°07'0 0.0
2017-Jun-16 14:29N 59°21' E 018°07'0 0.0
2017-Jun-16 13:28N 59°21' E 018°07'0 0.0
2017-Jun-16 12:54N 59°21' E 018°07'0 0.0
2017-Jun-16 12:30N 59°21' E 018°07'0 0.0
2017-Jun-16 12:00N 59°21' E 018°07'0 0.0
2017-Jun-16 11:28N 59°21' E 018°07'0 0.0
2017-Jun-16 10:58N 59°21' E 018°07'0 0.0
2017-Jun-16 10:31N 59°21' E 018°07'0 0.0
2017-Jun-16 09:56N 59°21' E 018°07'0 0.0
2017-Jun-16 09:23N 59°21' E 018°07'0 0.0
2017-Jun-16 08:57N 59°21' E 018°07'0 0.0
2017-Jun-16 08:27N 59°21' E 018°07'0 0.0
2017-Jun-16 07:55N 59°21' E 018°07'0 0.0
2017-Jun-16 07:27N 59°21' E 018°07'0 0.0
2017-Jun-16 06:51N 59°21' E 018°07'0 0.1
2017-Jun-16 06:30N 59°21' E 018°07'2 4.2
2017-Jun-16 06:00N 59°20' E 018°10'510.6
2017-Jun-16 05:30N 59°23' E 018°20'4 7.4
2017-Jun-16 05:00N 59°23' E 018°27'4 7.9
2017-Jun-16 04:31N 59°27' E 018°25'510.8
2017-Jun-16 04:00N 59°31' E 018°31'5 9.9
2017-Jun-16 03:30N 59°34' E 018°39'612.0
2017-Jun-16 03:00N 59°37' E 018°50'5 9.7
2017-Jun-16 02:30N 59°40' E 018°57'714.9
2017-Jun-16 02:00N 59°44' E 019°10'714.9
2017-Jun-16 01:30N 59°47' E 019°24'611.0
2017-Jun-16 01:00N 59°48' E 019°34'612.6
2017-Jun-16 00:31N 59°47' E 019°47'917.2
2017-Jun-16 00:00N 59°41' E 019°59'816.4
2017-Jun-15 23:31N 59°37' E 020°13'917.4
2017-Jun-15 23:01N 59°37' E 020°30'917.3
2017-Jun-15 22:31N 59°34' E 020°46'917.5
2017-Jun-15 22:00N 59°31' E 021°02'917.4
2017-Jun-15 21:31N 59°28' E 021°18'917.3
2017-Jun-15 21:01N 59°26' E 021°35'917.5
2017-Jun-15 20:30N 59°26' E 021°52'917.6
2017-Jun-15 20:01N 59°25' E 022°09'917.2
2017-Jun-15 19:30N 59°29' E 022°25'917.3
2017-Jun-15 19:00N 59°32' E 022°40'917.2
2017-Jun-15 18:31N 59°34' E 022°57'917.3
2017-Jun-15 18:01N 59°36' E 023°13'714.3
2017-Jun-15 17:31N 59°33' E 023°26'714.8
2017-Jun-15 17:01N 59°31' E 023°40'917.9
2017-Jun-15 16:31N 59°31' E 023°58'816.4
2017-Jun-15 16:00N 59°31' E 024°14'917.1
2017-Jun-15 15:30N 59°30' E 024°31'612.6
2017-Jun-15 15:00N 59°32' E 024°43'5 5.1
2017-Jun-15 13:58N 59°27' E 024°46'0 0.0
2017-Jun-15 13:29N 59°27' E 024°46'0 0.0
2017-Jun-15 12:58N 59°27' E 024°46'0 0.0
2017-Jun-15 12:29N 59°27' E 024°46'0 0.0
2017-Jun-15 11:59N 59°27' E 024°46'0 0.0
2017-Jun-15 11:30N 59°27' E 024°46'0 0.0
2017-Jun-15 10:58N 59°27' E 024°46'0 0.0
2017-Jun-15 10:30N 59°27' E 024°46'0 0.0
2017-Jun-15 09:59N 59°27' E 024°46'1 0.3
2017-Jun-15 04:52N 59°28' E 024°45'513.7
2017-Jun-15 04:29N 59°34' E 024°42'612.4
2017-Jun-15 04:00N 59°40' E 024°42'5214.4
2017-Jun-15 00:21N 59°59' E 026°19'515.4
2017-Jun-15 00:00N 60°01' E 026°29'714.9
2017-Jun-14 23:30N 60°01' E 026°44'815.2
2017-Jun-14 22:59N 59°60' E 026°59'714.8
2017-Jun-14 22:30N 60°03' E 027°12'815.0
2017-Jun-14 22:00N 60°06' E 027°25'715.0
2017-Jun-14 21:30N 60°10' E 027°38'713.6
2017-Jun-14 21:01N 60°11' E 027°51'714.6
2017-Jun-14 20:30N 60°09' E 028°06'714.4
2017-Jun-14 20:00N 60°07' E 028°19'714.4
2017-Jun-14 19:31N 60°03' E 028°32'714.6
2017-Jun-14 19:00N 60°03' E 028°46'714.4
2017-Jun-14 18:30N 60°02' E 029°01'814.6
2017-Jun-14 17:59N 60°02' E 029°16'1212.0
2017-Jun-14 17:00N 59°60' E 029°39'5 9.8
2017-Jun-14 16:30N 59°58' E 029°48'611.7
2017-Jun-14 16:00N 59°56' E 029°59'510.0
2017-Jun-14 15:30N 59°57' E 030°08'1 2.8
2017-Jun-14 15:00N 59°57' E 030°11'0 0.0
2017-Jun-14 14:00N 59°57' E 030°11'0 0.0
2017-Jun-14 13:26N 59°57' E 030°11'0 0.0
2017-Jun-14 12:59N 59°57' E 030°11'0 0.0
2017-Jun-14 12:28N 59°57' E 030°11'0 0.0
2017-Jun-14 11:57N 59°57' E 030°11'0 0.0
2017-Jun-14 11:30N 59°57' E 030°11'0 0.0
2017-Jun-14 10:58N 59°57' E 030°11'0 0.0
2017-Jun-14 10:30N 59°57' E 030°11'0 0.0
2017-Jun-14 09:59N 59°57' E 030°11'0 0.0
2017-Jun-14 09:28N 59°57' E 030°11'0 0.0
2017-Jun-14 09:00N 59°57' E 030°11'0 0.0
2017-Jun-14 08:23N 59°57' E 030°11'0 0.0
2017-Jun-14 07:58N 59°57' E 030°11'0 0.0
2017-Jun-14 07:30N 59°57' E 030°11'0 0.0
2017-Jun-14 06:58N 59°57' E 030°11'0 0.0
2017-Jun-14 06:30N 59°57' E 030°11'0 0.0
2017-Jun-14 05:59N 59°57' E 030°11'0 0.0
2017-Jun-14 05:24N 59°57' E 030°11'0 0.0
2017-Jun-14 05:00N 59°57' E 030°11'0 0.0
2017-Jun-14 04:30N 59°57' E 030°11'0 0.0
2017-Jun-14 03:59N 59°57' E 030°11'0 0.0
2017-Jun-14 03:30N 59°57' E 030°11'0 0.0
2017-Jun-14 03:00N 59°57' E 030°11'0 0.0
2017-Jun-14 02:30N 59°57' E 030°11'0 0.0
2017-Jun-14 01:56N 59°57' E 030°11'0 0.0
2017-Jun-14 01:30N 59°57' E 030°11'0 0.0
2017-Jun-14 01:00N 59°57' E 030°11'0 0.0
2017-Jun-14 00:30N 59°57' E 030°11'0 0.0
2017-Jun-13 23:59N 59°57' E 030°11'0 0.0
2017-Jun-13 23:30N 59°57' E 030°11'0 0.0
2017-Jun-13 23:00N 59°57' E 030°11'0 0.0
2017-Jun-13 22:29N 59°57' E 030°11'0 0.0
2017-Jun-13 21:59N 59°57' E 030°11'0 0.0
2017-Jun-13 21:28N 59°57' E 030°11'0 0.0
2017-Jun-13 20:55N 59°57' E 030°11'0 0.0
2017-Jun-13 20:30N 59°57' E 030°11'0 0.0
2017-Jun-13 19:59N 59°57' E 030°11'0 0.0
2017-Jun-13 19:28N 59°57' E 030°11'0 0.0
2017-Jun-13 19:00N 59°57' E 030°11'0 0.0
2017-Jun-13 18:29N 59°57' E 030°11'0 0.0
2017-Jun-13 18:00N 59°57' E 030°11'0 0.0
2017-Jun-13 17:29N 59°57' E 030°11'0 0.0
2017-Jun-13 16:59N 59°57' E 030°11'  

Dump ship's entire track history